createdAt,value
2023-02-08T00:02:32.474Z,21.90
2023-02-08T00:05:21.060Z,23.43
2023-02-08T00:08:11.705Z,25.27
2023-02-08T00:11:00.343Z,23.50
2023-02-08T00:13:48.848Z,20.07
2023-02-08T00:16:37.332Z,20.73
2023-02-08T00:19:27.326Z,21.70
2023-02-08T00:22:15.898Z,23.37
2023-02-08T00:25:04.773Z,24.80
2023-02-08T00:27:53.291Z,22.40
2023-02-08T00:30:42.593Z,25.33
2023-02-08T00:33:31.293Z,26.57
2023-02-08T00:36:21.710Z,24.57
2023-02-08T00:39:10.242Z,28.37
2023-02-08T00:41:58.746Z,22.30
2023-02-08T00:44:47.277Z,24.70
2023-02-08T00:47:36.312Z,22.73
2023-02-08T00:50:24.957Z,21.77
2023-02-08T00:53:14.815Z,25.50
2023-02-08T00:56:03.262Z,24.97
2023-02-08T00:58:51.992Z,24.20
2023-02-08T01:01:41.212Z,22.40
2023-02-08T01:04:29.670Z,23.97
2023-02-08T01:07:18.199Z,19.17
2023-02-08T01:10:12.352Z,26.47
2023-02-08T01:13:01.759Z,23.30
2023-02-08T01:15:50.896Z,25.20
2023-02-08T01:18:39.610Z,26.93
2023-02-08T01:21:29.650Z,28.03
2023-02-08T01:24:18.629Z,27.53
2023-02-08T01:27:08.393Z,24.87
2023-02-08T01:29:56.880Z,24.60
2023-02-08T01:32:45.453Z,28.33
2023-02-08T01:35:33.884Z,26.93
2023-02-08T01:38:22.722Z,28.87
2023-02-08T01:41:16.011Z,25.90
2023-02-08T01:44:09.064Z,26.10
2023-02-08T01:46:57.571Z,29.10
2023-02-08T01:49:46.216Z,30.07
2023-02-08T01:52:35.015Z,32.70
2023-02-08T01:55:25.236Z,29.80
2023-02-08T01:58:14.210Z,30.03
2023-02-08T02:01:04.617Z,33.27
2023-02-08T02:03:54.707Z,29.03
2023-02-08T02:06:45.530Z,32.33
2023-02-08T02:09:39.253Z,23.13
2023-02-08T02:12:28.317Z,26.97
2023-02-08T02:15:16.860Z,24.60
2023-02-08T02:18:08.387Z,26.20
2023-02-08T02:21:11.322Z,27.50
2023-02-08T02:24:31.441Z,26.20
2023-02-08T02:27:41.927Z,25.60
2023-02-08T02:31:08.740Z,25.00
2023-02-08T02:34:04.822Z,26.97
2023-02-08T02:36:57.691Z,23.83
2023-02-08T02:39:51.359Z,21.70
2023-02-08T02:43:04.276Z,31.27
2023-02-08T02:46:00.026Z,26.67
2023-02-08T02:48:51.929Z,26.60
2023-02-08T02:51:44.690Z,25.40
2023-02-08T02:54:35.610Z,27.83
2023-02-08T02:57:29.255Z,28.07
2023-02-08T03:00:23.048Z,23.67
2023-02-08T03:03:15.278Z,24.87
2023-02-08T03:06:06.458Z,29.20
2023-02-08T03:09:14.354Z,29.50
2023-02-08T03:12:09.392Z,25.10
2023-02-08T03:15:00.725Z,26.23
2023-02-08T03:18:02.149Z,24.73
2023-02-08T03:20:53.511Z,26.00
2023-02-08T03:23:46.162Z,23.00
2023-02-08T03:26:39.679Z,25.87
2023-02-08T03:29:36.420Z,27.57
2023-02-08T03:32:27.278Z,32.53
2023-02-08T03:35:18.974Z,23.53
2023-02-08T03:38:10.676Z,22.40
2023-02-08T03:41:01.131Z,28.50
2023-02-08T03:43:53.719Z,21.83
2023-02-08T03:46:44.917Z,24.60
2023-02-08T03:49:36.528Z,22.20
2023-02-08T03:52:25.771Z,26.23
2023-02-08T03:55:15.764Z,30.70
2023-02-08T03:58:07.763Z,30.37
2023-02-08T04:01:00.914Z,29.40
2023-02-08T04:03:53.448Z,24.50
2023-02-08T04:06:42.253Z,23.97
2023-02-08T04:09:30.729Z,24.23
2023-02-08T04:12:19.347Z,22.00
2023-02-08T04:15:08.841Z,24.00
2023-02-08T04:17:58.674Z,26.23
2023-02-08T04:20:47.110Z,23.90
2023-02-08T04:23:35.532Z,26.60
2023-02-08T04:26:23.963Z,24.63
2023-02-08T04:29:12.450Z,25.17
2023-02-08T04:32:01.061Z,24.00
2023-02-08T04:34:50.872Z,24.00
2023-02-08T04:37:39.357Z,26.17
2023-02-08T04:40:27.791Z,28.30
2023-02-08T04:43:16.301Z,24.60
2023-02-08T04:46:06.026Z,22.00
2023-02-08T04:48:55.640Z,23.03
2023-02-08T04:51:46.396Z,23.67
2023-02-08T04:54:35.011Z,25.83
2023-02-08T04:57:23.483Z,23.63
2023-02-08T05:00:13.402Z,26.03
2023-02-08T05:03:01.864Z,27.03
2023-02-08T05:05:58.970Z,26.30
2023-02-08T05:08:48.783Z,29.67
2023-02-08T05:11:38.047Z,24.30
2023-02-08T05:14:26.542Z,23.30
2023-02-08T05:17:15.036Z,31.20
2023-02-08T05:20:03.930Z,24.43
2023-02-08T05:22:52.407Z,24.03
2023-02-08T05:25:42.230Z,25.37
2023-02-08T05:28:30.721Z,28.07
2023-02-08T05:31:21.479Z,29.30
2023-02-08T05:34:10.011Z,28.03
2023-02-08T05:36:58.475Z,30.57
2023-02-08T05:39:46.988Z,26.83
2023-02-08T05:42:36.780Z,28.60
2023-02-08T05:45:25.319Z,24.43
2023-02-08T05:48:14.321Z,28.00
2023-02-08T05:51:02.759Z,27.67
2023-02-08T05:53:51.259Z,28.00
2023-02-08T05:56:40.077Z,24.27
2023-02-08T05:59:30.095Z,31.93
2023-02-08T06:02:18.595Z,29.43
2023-02-08T06:05:07.785Z,27.90
2023-02-08T06:07:56.222Z,26.73
2023-02-08T06:10:45.889Z,32.13
2023-02-08T06:13:34.601Z,26.87
2023-02-08T06:16:24.537Z,31.03
2023-02-08T06:19:13.370Z,33.87
2023-02-08T06:22:01.819Z,35.30
2023-02-08T06:24:50.246Z,33.43
2023-02-08T06:27:38.764Z,30.03
2023-02-08T06:30:27.230Z,27.30
2023-02-08T06:33:17.360Z,33.50
2023-02-08T06:36:06.552Z,32.20
2023-02-08T06:38:55.293Z,27.20
2023-02-08T06:41:43.843Z,29.90
2023-02-08T06:44:32.294Z,37.50
2023-02-08T06:47:20.756Z,30.50
2023-02-08T06:50:11.329Z,28.90
2023-02-08T06:52:59.833Z,37.47
2023-02-08T06:55:49.108Z,31.07
2023-02-08T06:58:38.986Z,33.63
2023-02-08T07:01:27.537Z,33.87
2023-02-08T07:04:16.005Z,28.80
2023-02-08T07:07:06.152Z,30.80
2023-02-08T07:09:54.861Z,29.90
2023-02-08T07:12:43.285Z,55.70
2023-02-08T07:15:32.061Z,38.27
2023-02-08T07:18:20.521Z,30.80
2023-02-08T07:21:11.569Z,31.87
2023-02-08T07:24:01.464Z,32.07
2023-02-08T07:26:49.924Z,33.70
2023-02-08T07:29:39.201Z,32.50
2023-02-08T07:32:27.858Z,45.20
2023-02-08T07:35:16.359Z,38.03
2023-02-08T07:38:04.833Z,34.60
2023-02-08T07:41:01.460Z,36.00
2023-02-08T07:43:51.010Z,29.33
2023-02-08T07:46:40.868Z,29.77
2023-02-08T07:49:29.505Z,28.33
2023-02-08T07:52:17.992Z,35.10
2023-02-08T07:55:06.910Z,27.67
2023-02-08T07:57:57.243Z,27.00
2023-02-08T08:00:45.880Z,26.97
2023-02-08T08:03:34.383Z,27.13
2023-02-08T08:06:24.007Z,29.70
2023-02-08T08:09:12.537Z,30.37
2023-02-08T08:12:02.179Z,30.20
2023-02-08T08:14:52.274Z,23.87
2023-02-08T08:17:42.187Z,23.60
2023-02-08T08:20:30.782Z,26.70
2023-02-08T08:23:19.648Z,23.13
2023-02-08T08:26:09.545Z,22.53
2023-02-08T08:28:58.028Z,22.03
2023-02-08T08:31:47.959Z,26.13
2023-02-08T08:34:36.610Z,25.33
2023-02-08T08:37:25.187Z,21.87
2023-02-08T08:40:14.139Z,25.00
2023-02-08T08:43:02.644Z,24.67
2023-02-08T08:45:53.128Z,22.10
2023-02-08T08:48:43.379Z,23.87
2023-02-08T08:51:35.146Z,20.17
2023-02-08T08:54:23.868Z,22.97
2023-02-08T08:57:12.349Z,21.13
2023-02-08T09:00:00.833Z,24.07
2023-02-08T09:02:49.349Z,21.60
2023-02-08T09:05:39.196Z,20.40
2023-02-08T09:08:27.652Z,23.47
2023-02-08T09:11:17.049Z,21.40
2023-02-08T09:14:06.493Z,19.23
2023-02-08T09:16:56.241Z,23.90
2023-02-08T09:19:45.306Z,20.83
2023-02-08T09:22:35.164Z,25.67
2023-02-08T09:25:23.938Z,18.40
2023-02-08T09:28:12.496Z,19.13
2023-02-08T09:31:01.713Z,20.27
2023-02-08T09:33:51.262Z,19.80
2023-02-08T09:36:41.242Z,19.87
2023-02-08T09:39:31.154Z,21.63
2023-02-08T09:42:29.445Z,20.90
2023-02-08T09:45:30.964Z,22.43
2023-02-08T09:48:23.290Z,21.53
2023-02-08T09:51:22.514Z,22.60
2023-02-08T09:54:16.395Z,20.77
2023-02-08T09:57:10.655Z,16.60
2023-02-08T10:00:02.813Z,18.47
2023-02-08T10:02:51.959Z,19.50
2023-02-08T10:05:40.607Z,19.73
2023-02-08T10:08:35.152Z,18.47
2023-02-08T10:11:33.841Z,17.30
2023-02-08T10:14:40.855Z,19.90
2023-02-08T10:17:50.369Z,17.93
2023-02-08T10:20:51.624Z,17.53
2023-02-08T10:23:52.300Z,15.67
2023-02-08T10:26:46.022Z,14.47
2023-02-08T10:29:55.648Z,18.80
2023-02-08T10:32:51.268Z,18.90
2023-02-08T10:35:44.505Z,15.50
2023-02-08T10:38:45.837Z,20.67
2023-02-08T10:41:39.398Z,14.97
2023-02-08T10:44:34.805Z,18.83
2023-02-08T10:47:34.725Z,18.57
2023-02-08T10:50:30.559Z,18.20
2023-02-08T10:53:20.478Z,18.63
2023-02-08T10:56:19.959Z,17.20
2023-02-08T10:59:16.064Z,17.13
2023-02-08T11:02:16.261Z,18.37
2023-02-08T11:05:08.723Z,20.03
2023-02-08T11:08:07.458Z,22.93
2023-02-08T11:11:01.086Z,21.77
2023-02-08T11:13:52.346Z,18.30
2023-02-08T11:16:41.850Z,16.23
2023-02-08T11:19:35.597Z,18.30
2023-02-08T11:22:26.527Z,17.20
2023-02-08T11:25:35.572Z,16.80
2023-02-08T11:28:28.147Z,19.63
2023-02-08T11:31:19.561Z,20.00
2023-02-08T11:34:10.112Z,22.27
2023-02-08T11:36:59.620Z,20.37
2023-02-08T11:39:54.217Z,19.97
2023-02-08T11:42:44.211Z,16.03
2023-02-08T11:45:34.445Z,17.43
2023-02-08T11:48:26.131Z,19.73
2023-02-08T11:51:23.839Z,19.90
2023-02-08T11:54:33.488Z,19.53
2023-02-08T11:57:24.759Z,17.53
2023-02-08T12:00:19.843Z,19.87
2023-02-08T12:03:14.810Z,18.20
2023-02-08T12:06:22.718Z,22.13
2023-02-08T12:09:18.870Z,17.10
2023-02-08T12:12:14.406Z,17.47
2023-02-08T12:15:10.229Z,18.53
2023-02-08T12:18:10.389Z,20.07
2023-02-08T12:21:02.789Z,19.30
2023-02-08T12:23:56.370Z,13.40
2023-02-08T12:26:55.902Z,16.60
2023-02-08T12:29:48.248Z,18.33
2023-02-08T12:32:59.524Z,17.33
2023-02-08T12:36:04.248Z,18.93
2023-02-08T12:39:26.466Z,16.03
2023-02-08T12:42:29.566Z,19.40
2023-02-08T12:45:42.915Z,19.07
2023-02-08T12:48:47.202Z,18.17
2023-02-08T12:51:41.084Z,19.13
2023-02-08T12:54:33.357Z,26.00
2023-02-08T12:57:24.514Z,17.47
2023-02-08T13:00:19.958Z,21.63
2023-02-08T13:03:14.081Z,17.80
2023-02-08T13:06:06.387Z,21.40
2023-02-08T13:08:59.820Z,19.03
2023-02-08T13:11:51.361Z,18.30
2023-02-08T13:14:44.611Z,18.90
2023-02-08T13:17:46.602Z,17.20
2023-02-08T13:20:41.260Z,19.10
2023-02-08T13:23:38.464Z,17.80
2023-02-08T13:26:34.683Z,19.67
2023-02-08T13:29:26.114Z,18.10
2023-02-08T13:32:18.593Z,16.37
2023-02-08T13:35:14.835Z,18.27
2023-02-08T13:38:05.253Z,16.53
2023-02-08T13:41:06.424Z,19.07
2023-02-08T13:43:57.942Z,17.03
2023-02-08T13:46:48.418Z,17.73
2023-02-08T13:49:44.196Z,19.60
2023-02-08T13:52:50.535Z,15.17
2023-02-08T13:56:09.181Z,15.23
2023-02-08T13:59:02.307Z,18.30
2023-02-08T14:02:26.899Z,17.50
2023-02-08T14:05:47.166Z,25.63
2023-02-08T14:08:43.225Z,14.97
2023-02-08T14:11:40.427Z,16.50
2023-02-08T14:14:30.433Z,17.00
2023-02-08T14:17:21.530Z,17.40
2023-02-08T14:20:20.947Z,14.40
2023-02-08T14:23:23.173Z,15.07
2023-02-08T14:26:24.210Z,13.00
2023-02-08T14:29:23.286Z,14.33
2023-02-08T14:32:24.093Z,15.43
2023-02-08T14:35:20.706Z,16.90
2023-02-08T14:38:48.182Z,18.40
2023-02-08T14:41:51.293Z,16.00
2023-02-08T14:45:03.729Z,14.00
2023-02-08T14:48:15.677Z,17.73
2023-02-08T14:51:19.935Z,18.53
2023-02-08T14:54:18.776Z,14.47
2023-02-08T14:57:25.156Z,13.90
2023-02-08T15:00:21.228Z,17.70
2023-02-08T15:03:17.234Z,12.13
2023-02-08T15:06:49.800Z,13.03
2023-02-08T15:09:40.535Z,17.70
2023-02-08T15:12:31.032Z,13.07
2023-02-08T15:15:29.909Z,14.23
2023-02-08T15:18:21.821Z,13.43
2023-02-08T15:21:17.958Z,17.53
2023-02-08T15:24:15.226Z,16.60
2023-02-08T15:27:04.290Z,14.00
2023-02-08T15:29:53.048Z,12.73
2023-02-08T15:32:41.622Z,12.43
2023-02-08T15:35:33.750Z,13.73
2023-02-08T15:38:23.476Z,14.73
2023-02-08T15:41:13.600Z,14.23
2023-02-08T15:44:04.091Z,15.73
2023-02-08T15:49:42.823Z,15.43
2023-02-08T15:52:34.972Z,13.43
2023-02-08T15:55:23.613Z,9.50
2023-02-08T15:58:17.745Z,13.70
2023-02-08T16:01:08.377Z,12.40
2023-02-08T16:03:59.142Z,9.93
2023-02-08T16:06:49.813Z,12.90
2023-02-08T16:09:39.641Z,10.40
2023-02-08T16:12:29.277Z,12.90
2023-02-08T16:15:43.118Z,14.20
2023-02-08T16:18:34.648Z,11.17
2023-02-08T16:21:29.597Z,12.70
2023-02-08T16:24:23.563Z,10.50
2023-02-08T16:27:22.728Z,19.40
2023-02-08T16:30:18.451Z,15.53
2023-02-08T16:33:08.448Z,13.80
2023-02-08T16:36:01.832Z,17.37
2023-02-08T16:39:26.511Z,12.33
2023-02-08T16:42:29.346Z,17.10
2023-02-08T16:45:20.028Z,16.73
2023-02-08T16:48:28.758Z,15.13
2023-02-08T16:51:21.616Z,15.00
2023-02-08T16:54:13.617Z,12.70
2023-02-08T16:57:02.253Z,10.10
2023-02-08T16:59:56.603Z,14.13
2023-02-08T17:02:45.232Z,14.73
2023-02-08T17:05:37.065Z,14.43
2023-02-08T17:08:25.613Z,15.50
2023-02-08T17:11:14.122Z,10.50
2023-02-08T17:14:02.753Z,11.80
2023-02-08T17:16:52.711Z,14.80
2023-02-08T17:19:41.247Z,15.30
2023-02-08T17:22:31.324Z,17.37
2023-02-08T17:25:20.458Z,17.93
2023-02-08T17:28:12.743Z,18.57
2023-02-08T17:31:01.727Z,16.03
2023-02-08T17:33:51.638Z,17.50
2023-02-08T17:36:42.648Z,19.50
2023-02-08T17:39:31.651Z,15.33
2023-02-08T17:42:20.175Z,23.77
2023-02-08T17:45:09.866Z,20.77
2023-02-08T17:48:00.994Z,17.53
2023-02-08T17:50:53.561Z,15.80
2023-02-08T17:53:43.763Z,18.50
2023-02-08T17:56:35.351Z,25.97
2023-02-08T17:59:23.867Z,29.20
2023-02-08T18:02:12.425Z,24.17
2023-02-08T18:05:00.881Z,18.10
2023-02-08T18:07:51.244Z,20.70
2023-02-08T18:10:39.721Z,21.23
2023-02-08T18:13:28.288Z,17.23
2023-02-08T18:16:18.855Z,22.63
2023-02-08T18:19:07.496Z,19.23
2023-02-08T18:21:56.474Z,16.33
2023-02-08T18:24:46.269Z,32.00
2023-02-08T18:27:34.805Z,28.83
2023-02-08T18:30:25.500Z,21.87
2023-02-08T18:33:14.071Z,18.33
2023-02-08T18:36:02.852Z,17.43
2023-02-08T18:38:53.101Z,16.70
2023-02-08T18:41:43.386Z,20.00
2023-02-08T18:44:31.857Z,17.77
2023-02-08T18:47:20.363Z,17.40
2023-02-08T18:50:10.038Z,17.73
2023-02-08T18:52:58.557Z,21.70
2023-02-08T18:55:53.440Z,23.63
2023-02-08T18:58:43.924Z,24.70
2023-02-08T19:01:32.587Z,24.47
2023-02-08T19:04:21.177Z,20.73
2023-02-08T19:07:09.712Z,16.03
2023-02-08T19:09:58.375Z,17.53
2023-02-08T19:12:47.070Z,20.20
2023-02-08T19:15:38.040Z,18.07
2023-02-08T19:18:26.613Z,24.63
2023-02-08T19:21:16.974Z,25.10
2023-02-08T19:24:06.156Z,21.13
2023-02-08T19:26:54.629Z,21.57
2023-02-08T19:29:44.393Z,23.70
2023-02-08T19:32:34.225Z,19.60
2023-02-08T19:35:22.750Z,25.27
2023-02-08T19:38:11.319Z,22.93
2023-02-08T19:40:59.815Z,20.73
2023-02-08T19:43:49.518Z,23.23
2023-02-08T19:46:39.101Z,25.23
2023-02-08T19:49:29.196Z,23.37
2023-02-08T19:52:20.672Z,28.57
2023-02-08T19:55:12.374Z,26.70
2023-02-08T19:58:00.890Z,28.47
2023-02-08T20:00:49.401Z,29.47
2023-02-08T20:03:38.126Z,25.50
2023-02-08T20:06:29.692Z,29.60
2023-02-08T20:09:18.163Z,26.63
2023-02-08T20:12:07.220Z,27.43
2023-02-08T20:14:55.989Z,34.70
2023-02-08T20:17:45.640Z,31.13
2023-02-08T20:20:34.640Z,34.33
2023-02-08T20:23:24.524Z,30.30
2023-02-08T20:26:14.916Z,29.90
2023-02-08T20:29:03.448Z,27.57
2023-02-08T20:31:55.639Z,29.73
2023-02-08T20:34:53.945Z,32.37
2023-02-08T20:37:47.484Z,28.27
2023-02-08T20:40:37.469Z,31.63
2023-02-08T20:43:26.057Z,33.90
2023-02-08T20:46:17.037Z,34.60
2023-02-08T20:49:06.706Z,28.83
2023-02-08T20:51:55.918Z,26.77
2023-02-08T20:54:44.838Z,30.30
2023-02-08T20:57:34.805Z,30.60
2023-02-08T21:00:26.006Z,29.13
2023-02-08T21:03:21.885Z,29.87
2023-02-08T21:06:14.734Z,27.50
2023-02-08T21:09:06.933Z,35.87
2023-02-08T21:11:55.481Z,29.53
2023-02-08T21:14:45.351Z,32.00
2023-02-08T21:17:34.100Z,34.30
2023-02-08T21:20:22.907Z,27.73
2023-02-08T21:23:11.479Z,28.27
2023-02-08T21:26:00.463Z,26.27
2023-02-08T21:28:49.493Z,27.50
2023-02-08T21:31:39.833Z,28.10
2023-02-08T21:34:28.504Z,27.87
2023-02-08T21:37:17.117Z,28.83
2023-02-08T21:40:06.522Z,27.50
2023-02-08T21:42:55.121Z,29.73
2023-02-08T21:45:43.703Z,32.50
2023-02-08T21:48:54.652Z,34.43
2023-02-08T21:52:00.832Z,31.17
2023-02-08T21:54:53.417Z,30.97
2023-02-08T21:57:42.016Z,30.30
2023-02-08T22:00:30.703Z,27.23
2023-02-08T22:03:19.236Z,30.93
2023-02-08T22:06:26.844Z,33.67
2023-02-08T22:09:15.512Z,31.30
2023-02-08T22:12:04.073Z,31.13
2023-02-08T22:14:52.555Z,30.63
2023-02-08T22:17:41.069Z,34.70
2023-02-08T22:20:30.236Z,38.63
2023-02-08T22:23:20.390Z,30.13
2023-02-08T22:26:09.345Z,29.23
2023-02-08T22:28:57.946Z,31.93
2023-02-08T22:31:46.525Z,34.30
2023-02-08T22:34:35.100Z,28.07
2023-02-08T22:37:23.735Z,31.60
2023-02-08T22:40:13.875Z,30.53
2023-02-08T22:43:02.395Z,28.40
2023-02-08T22:45:58.155Z,31.63
2023-02-08T22:48:46.753Z,30.30
2023-02-08T22:51:35.293Z,24.93
2023-02-08T22:54:23.794Z,28.60
2023-02-08T22:57:13.665Z,31.27
2023-02-08T23:00:02.678Z,35.07
2023-02-08T23:02:51.286Z,31.87
2023-02-08T23:05:42.219Z,31.73
2023-02-08T23:08:30.680Z,30.43
2023-02-08T23:11:19.774Z,32.13
2023-02-08T23:14:09.887Z,27.33
2023-02-08T23:16:58.365Z,29.17
2023-02-08T23:19:46.862Z,34.23
2023-02-08T23:22:37.320Z,28.83
2023-02-08T23:25:25.849Z,29.33
2023-02-08T23:28:14.428Z,30.93
2023-02-08T23:31:07.164Z,30.47
2023-02-08T23:33:55.883Z,34.83
2023-02-08T23:36:44.653Z,31.67
2023-02-08T23:39:34.050Z,34.17
2023-02-08T23:42:28.323Z,30.00
2023-02-08T23:45:16.861Z,32.73
2023-02-08T23:48:06.938Z,34.43
2023-02-08T23:50:58.931Z,28.00
2023-02-08T23:53:47.855Z,32.43
2023-02-08T23:56:36.284Z,29.00
2023-02-08T23:59:24.754Z,30.27
